createdAt,value
2023-03-11T00:00:25.694Z,16723
2023-03-11T00:01:55.058Z,16697
2023-03-11T00:03:22.755Z,16723
2023-03-11T00:04:51.068Z,16723
2023-03-11T00:06:20.149Z,16723
2023-03-11T00:07:48.929Z,16737
2023-03-11T00:09:17.746Z,16723
2023-03-11T00:10:46.508Z,16710
2023-03-11T00:12:14.750Z,16710
2023-03-11T00:13:42.901Z,16697
2023-03-11T00:15:11.858Z,16723
2023-03-11T00:16:40.352Z,16723
2023-03-11T00:18:08.789Z,16723
2023-03-11T00:19:37.182Z,16683
2023-03-11T00:21:05.377Z,16697
2023-03-11T00:22:33.657Z,16697
2023-03-11T00:24:02.324Z,16683
2023-03-11T00:25:31.158Z,16710
2023-03-11T00:26:59.483Z,16723
2023-03-11T00:28:28.050Z,16683
2023-03-11T00:29:56.678Z,16710
2023-03-11T00:31:25.296Z,16670
2023-03-11T00:32:54.273Z,16670
2023-03-11T00:34:22.840Z,16683
2023-03-11T00:35:51.967Z,16670
2023-03-11T00:37:19.895Z,16670
2023-03-11T00:38:48.996Z,16683
2023-03-11T00:40:17.456Z,16670
2023-03-11T00:41:45.466Z,16670
2023-03-11T00:43:13.535Z,16657
2023-03-11T00:44:42.463Z,16670
2023-03-11T00:46:10.957Z,16617
2023-03-11T00:47:39.067Z,16617
2023-03-11T00:49:07.196Z,16630
2023-03-11T00:50:35.621Z,16630
2023-03-11T00:52:04.293Z,16604
2023-03-11T00:53:33.444Z,16617
2023-03-11T00:55:02.028Z,16604
2023-03-11T00:56:30.465Z,16604
2023-03-11T00:57:59.664Z,16657
2023-03-11T00:59:28.303Z,16604
2023-03-11T01:00:57.158Z,16604
2023-03-11T01:02:25.808Z,16604
2023-03-11T01:03:54.588Z,16604
2023-03-11T01:05:23.042Z,16564
2023-03-11T01:06:52.538Z,16591
2023-03-11T01:08:21.084Z,16578
2023-03-11T01:09:49.644Z,16591
2023-03-11T01:11:18.435Z,16564
2023-03-11T01:12:47.156Z,16564
2023-03-11T01:14:15.388Z,16538
2023-03-11T01:15:44.294Z,16578
2023-03-11T01:17:12.532Z,16551
2023-03-11T01:18:41.113Z,16551
2023-03-11T01:20:10.131Z,16551
2023-03-11T01:21:38.535Z,16564
2023-03-11T01:23:07.216Z,16564
2023-03-11T01:24:35.232Z,16551
2023-03-11T01:26:03.714Z,16525
2023-03-11T01:27:32.411Z,16538
2023-03-11T01:29:01.378Z,16525
2023-03-11T01:30:29.664Z,16525
2023-03-11T01:31:58.213Z,16512
2023-03-11T01:33:26.811Z,16538
2023-03-11T01:34:55.292Z,16512
2023-03-11T01:36:23.571Z,16486
2023-03-11T01:37:51.932Z,16499
2023-03-11T01:39:20.499Z,16551
2023-03-11T01:40:49.145Z,16512
2023-03-11T01:42:17.785Z,16525
2023-03-11T01:43:46.412Z,16525
2023-03-11T01:45:15.367Z,16499
2023-03-11T01:46:44.152Z,16499
2023-03-11T01:48:13.020Z,16473
2023-03-11T01:49:41.018Z,16499
2023-03-11T01:51:09.717Z,16512
2023-03-11T01:52:38.711Z,16486
2023-03-11T01:54:07.314Z,16473
2023-03-11T01:55:35.384Z,16486
2023-03-11T01:57:03.554Z,16486
2023-03-11T01:58:32.003Z,16460
2023-03-11T02:00:00.508Z,16460
2023-03-11T02:01:29.040Z,16473
2023-03-11T02:02:57.623Z,16447
2023-03-11T02:04:25.470Z,16434
2023-03-11T02:05:54.577Z,16460
2023-03-11T02:07:23.008Z,16434
2023-03-11T02:08:52.027Z,16422
2023-03-11T02:10:20.389Z,16409
2023-03-11T02:11:49.325Z,16460
2023-03-11T02:13:17.980Z,16434
2023-03-11T02:14:46.342Z,16447
2023-03-11T02:16:15.359Z,16434
2023-03-11T02:17:44.044Z,16409
2023-03-11T02:19:12.678Z,16409
2023-03-11T02:20:41.063Z,16409
2023-03-11T02:22:09.950Z,16409
2023-03-11T02:23:38.796Z,16396
2023-03-11T02:25:07.638Z,16383
2023-03-11T02:26:36.161Z,16383
2023-03-11T02:28:05.388Z,16396
2023-03-11T02:29:33.846Z,16370
2023-03-11T02:31:02.678Z,16396
2023-03-11T02:32:31.406Z,16383
2023-03-11T02:33:59.960Z,16370
2023-03-11T02:35:28.988Z,16357
2023-03-11T02:36:57.266Z,16383
2023-03-11T02:38:25.509Z,16357
2023-03-11T02:39:54.648Z,16357
2023-03-11T02:41:23.397Z,16345
2023-03-11T02:42:52.033Z,16370
2023-03-11T02:44:20.898Z,16319
2023-03-11T02:45:49.495Z,16332
2023-03-11T02:47:17.990Z,16332
2023-03-11T02:48:46.870Z,16332
2023-03-11T02:50:15.133Z,16357
2023-03-11T02:51:44.265Z,16345
2023-03-11T02:53:12.932Z,16319
2023-03-11T02:54:41.576Z,16306
2023-03-11T02:56:09.771Z,16306
2023-03-11T02:57:38.270Z,16306
2023-03-11T02:59:06.329Z,16294
2023-03-11T03:00:34.925Z,16306
2023-03-11T03:02:02.989Z,16268
2023-03-11T03:03:31.294Z,16306
2023-03-11T03:04:59.822Z,16281
2023-03-11T03:06:28.577Z,16306
2023-03-11T03:07:57.970Z,16294
2023-03-11T03:09:26.590Z,16294
2023-03-11T03:10:54.958Z,16281
2023-03-11T03:12:23.751Z,16268
2023-03-11T03:13:52.490Z,16256
2023-03-11T03:15:21.392Z,16256
2023-03-11T03:16:50.465Z,16218
2023-03-11T03:18:18.450Z,16256
2023-03-11T03:19:47.031Z,16231
2023-03-11T03:21:15.292Z,16243
2023-03-11T03:22:44.555Z,16256
2023-03-11T03:24:13.069Z,16231
2023-03-11T03:25:41.752Z,16218
2023-03-11T03:27:10.662Z,16243
2023-03-11T03:28:39.008Z,16218
2023-03-11T03:30:07.880Z,16256
2023-03-11T03:31:37.271Z,16243
2023-03-11T03:33:05.844Z,16205
2023-03-11T03:34:34.762Z,16218
2023-03-11T03:36:03.767Z,16218
2023-03-11T03:37:32.139Z,16218
2023-03-11T03:39:00.462Z,16218
2023-03-11T03:40:28.642Z,16205
2023-03-11T03:41:57.463Z,16218
2023-03-11T03:43:26.242Z,16218
2023-03-11T03:44:54.490Z,16205
2023-03-11T03:46:23.911Z,16205
2023-03-11T03:47:52.159Z,16205
2023-03-11T03:49:21.050Z,16193
2023-03-11T03:50:49.867Z,16205
2023-03-11T03:52:18.382Z,16180
2023-03-11T03:53:47.161Z,16168
2023-03-11T03:55:15.814Z,16180
2023-03-11T03:56:44.476Z,16168
2023-03-11T03:58:13.114Z,16143
2023-03-11T03:59:41.765Z,16168
2023-03-11T04:01:10.745Z,16155
2023-03-11T04:02:40.090Z,16180
2023-03-11T04:04:08.227Z,16193
2023-03-11T04:05:37.274Z,16131
2023-03-11T04:07:05.465Z,16155
2023-03-11T04:08:33.846Z,16155
2023-03-11T04:10:03.148Z,16143
2023-03-11T04:11:32.320Z,16180
2023-03-11T04:13:00.866Z,16143
2023-03-11T04:14:29.476Z,16155
2023-03-11T04:15:57.877Z,16131
2023-03-11T04:17:26.240Z,16106
2023-03-11T04:18:54.996Z,16143
2023-03-11T04:20:22.855Z,16143
2023-03-11T04:21:51.378Z,16118
2023-03-11T04:23:20.016Z,16155
2023-03-11T04:24:48.488Z,16106
2023-03-11T04:26:16.926Z,16143
2023-03-11T04:27:45.250Z,16131
2023-03-11T04:29:13.325Z,16118
2023-03-11T04:30:42.601Z,16131
2023-03-11T04:32:10.752Z,16106
2023-03-11T04:33:39.206Z,16143
2023-03-11T04:35:08.241Z,16118
2023-03-11T04:36:36.945Z,16131
2023-03-11T04:38:05.642Z,16118
2023-03-11T04:39:34.062Z,16131
2023-03-11T04:41:02.786Z,16106
2023-03-11T04:42:31.645Z,16131
2023-03-11T04:44:00.600Z,16106
2023-03-11T04:45:28.923Z,16106
2023-03-11T04:46:57.620Z,16106
2023-03-11T04:48:26.583Z,16106
2023-03-11T04:49:55.161Z,16081
2023-03-11T04:51:23.608Z,16093
2023-03-11T04:52:52.681Z,16093
2023-03-11T04:54:21.207Z,16069
2023-03-11T04:55:50.023Z,16069
2023-03-11T04:57:18.301Z,16044
2023-03-11T04:58:47.480Z,16069
2023-03-11T05:00:16.262Z,16093
2023-03-11T05:01:45.027Z,16081
2023-03-11T05:03:13.374Z,16069
2023-03-11T05:04:42.017Z,16081
2023-03-11T05:06:10.684Z,16044
2023-03-11T05:07:39.549Z,16069
2023-03-11T05:09:07.845Z,16093
2023-03-11T05:10:37.099Z,16069
2023-03-11T05:12:05.600Z,16044
2023-03-11T05:13:34.341Z,16069
2023-03-11T05:15:02.694Z,16044
2023-03-11T05:16:30.951Z,16044
2023-03-11T05:17:59.308Z,16044
2023-03-11T05:19:27.777Z,16056
2023-03-11T05:20:56.552Z,16056
2023-03-11T05:22:24.924Z,16056
2023-03-11T05:23:53.463Z,16056
2023-03-11T05:25:21.823Z,16032
2023-03-11T05:26:50.312Z,16044
2023-03-11T05:28:18.849Z,16032
2023-03-11T05:29:47.730Z,16056
2023-03-11T05:31:16.853Z,16069
2023-03-11T05:32:45.399Z,16044
2023-03-11T05:34:23.964Z,16268
2023-03-11T05:35:52.912Z,16093
2023-03-11T05:37:20.863Z,16081
2023-03-11T05:38:50.164Z,16044
2023-03-11T05:40:18.245Z,16032
2023-03-11T05:41:46.788Z,16007
2023-03-11T05:43:15.719Z,16032
2023-03-11T05:44:43.909Z,16032
2023-03-11T05:46:12.411Z,16007
2023-03-11T05:47:40.588Z,16032
2023-03-11T05:49:08.699Z,16007
2023-03-11T05:50:37.680Z,16007
2023-03-11T05:52:06.335Z,16007
2023-03-11T05:53:34.895Z,16007
2023-03-11T05:55:03.824Z,16007
2023-03-11T05:56:32.784Z,16007
2023-03-11T05:58:01.458Z,15995
2023-03-11T05:59:29.640Z,15995
2023-03-11T06:00:58.792Z,16032
2023-03-11T06:02:27.350Z,16007
2023-03-11T06:03:56.672Z,15983
2023-03-11T06:05:25.532Z,16007
2023-03-11T06:06:53.971Z,15995
2023-03-11T06:08:22.192Z,15983
2023-03-11T06:09:50.810Z,15995
2023-03-11T06:11:19.574Z,16007
2023-03-11T06:12:48.332Z,15995
2023-03-11T06:14:16.789Z,15971
2023-03-11T06:15:45.362Z,15995
2023-03-11T06:17:13.313Z,15983
2023-03-11T06:18:42.185Z,16020
2023-03-11T06:20:10.816Z,15983
2023-03-11T06:21:39.928Z,15995
2023-03-11T06:23:08.509Z,16007
2023-03-11T06:24:36.770Z,15983
2023-03-11T06:26:04.998Z,16007
2023-03-11T06:27:33.462Z,15983
2023-03-11T06:29:02.563Z,16007
2023-03-11T06:30:31.043Z,16007
2023-03-11T06:31:59.594Z,16044
2023-03-11T06:33:27.470Z,16020
2023-03-11T06:34:56.219Z,15995
2023-03-11T06:36:24.825Z,16007
2023-03-11T06:37:53.458Z,16007
2023-03-11T06:39:22.229Z,15983
2023-03-11T06:40:50.843Z,15983
2023-03-11T06:42:18.838Z,16069
2023-03-11T06:43:47.357Z,16081
2023-03-11T06:45:15.606Z,16069
2023-03-11T06:47:04.690Z,16447
2023-03-11T06:48:33.314Z,16118
2023-03-11T06:50:02.175Z,16081
2023-03-11T06:51:30.513Z,16155
2023-03-11T06:53:09.877Z,16294
2023-03-11T06:54:38.199Z,16131
2023-03-11T06:56:06.248Z,16131
2023-03-11T06:57:34.440Z,16106
2023-03-11T06:59:02.864Z,16106
2023-03-11T07:00:31.617Z,16131
2023-03-11T07:01:59.535Z,16143
2023-03-11T07:03:27.844Z,16131
2023-03-11T07:04:56.241Z,16155
2023-03-11T07:06:25.248Z,16155
2023-03-11T07:07:54.437Z,16168
2023-03-11T07:09:23.397Z,16155
2023-03-11T07:10:51.558Z,16155
2023-03-11T07:12:20.399Z,16180
2023-03-11T07:13:48.738Z,16180
2023-03-11T07:15:16.864Z,16180
2023-03-11T07:16:45.667Z,16193
2023-03-11T07:18:14.225Z,16168
2023-03-11T07:19:42.598Z,16434
2023-03-11T07:21:10.859Z,16180
2023-03-11T07:22:39.037Z,16205
2023-03-11T07:24:07.260Z,16205
2023-03-11T07:25:36.283Z,16218
2023-03-11T07:27:04.982Z,16218
2023-03-11T07:28:33.623Z,16205
2023-03-11T07:30:02.772Z,16218
2023-03-11T07:31:31.450Z,16193
2023-03-11T07:33:00.046Z,16205
2023-03-11T07:34:28.526Z,16218
2023-03-11T07:36:47.925Z,16912
2023-03-11T07:38:16.121Z,16332
2023-03-11T07:39:44.421Z,16243
2023-03-11T07:41:12.741Z,16205
2023-03-11T07:42:41.494Z,16193
2023-03-11T07:44:10.611Z,16205
2023-03-11T07:45:38.733Z,16180
2023-03-11T07:47:06.777Z,16193
2023-03-11T07:48:35.229Z,16205
2023-03-11T07:50:04.987Z,16218
2023-03-11T07:51:33.884Z,16168
2023-03-11T07:53:02.527Z,16180
2023-03-11T07:54:30.779Z,16231
2023-03-11T07:56:09.304Z,16409
2023-03-11T07:57:37.923Z,16243
2023-03-11T07:59:06.157Z,16218
2023-03-11T08:00:25.565Z,16617
2023-03-11T08:01:54.398Z,16268
2023-03-11T08:03:23.327Z,16231
2023-03-11T08:04:51.381Z,16205
2023-03-11T08:06:19.781Z,16193
2023-03-11T08:07:48.459Z,16218
2023-03-11T08:09:17.524Z,16218
2023-03-11T08:10:46.145Z,16180
2023-03-11T08:12:14.677Z,16205
2023-03-11T08:13:43.078Z,16205
2023-03-11T08:15:11.845Z,16180
2023-03-11T08:16:40.429Z,16205
2023-03-11T08:18:11.636Z,16193
2023-03-11T08:19:37.405Z,16193
2023-03-11T08:21:05.699Z,16180
2023-03-11T08:22:34.198Z,16180
2023-03-11T08:24:06.192Z,16205
2023-03-11T08:25:30.982Z,16205
2023-03-11T08:26:59.779Z,16243
2023-03-11T08:28:28.859Z,16180
2023-03-11T08:29:56.861Z,16193
2023-03-11T08:31:25.641Z,16205
2023-03-11T08:32:53.917Z,16193
2023-03-11T08:34:22.619Z,16180
2023-03-11T08:35:51.674Z,16193
2023-03-11T08:37:19.557Z,16180
2023-03-11T08:38:48.354Z,16205
2023-03-11T08:40:16.464Z,16193
2023-03-11T08:41:44.947Z,16218
2023-03-11T08:43:14.017Z,16180
2023-03-11T08:44:42.517Z,16180
2023-03-11T08:46:11.269Z,16180
2023-03-11T08:47:39.697Z,16205
2023-03-11T08:49:08.756Z,16180
2023-03-11T08:50:55.188Z,16180
2023-03-11T08:52:05.137Z,16180
2023-03-11T08:53:33.656Z,16193
2023-03-11T08:55:01.777Z,16205
2023-03-11T08:56:30.272Z,16180
2023-03-11T08:57:58.767Z,16205
2023-03-11T08:59:27.465Z,16218
2023-03-11T09:00:56.598Z,16193
2023-03-11T09:02:25.142Z,16205
2023-03-11T09:03:53.452Z,16205
2023-03-11T09:05:22.159Z,16193
2023-03-11T09:06:51.139Z,16218
2023-03-11T09:08:19.826Z,16180
2023-03-11T09:09:48.801Z,16218
2023-03-11T09:11:17.186Z,16205
2023-03-11T09:12:46.034Z,16193
2023-03-11T09:14:14.847Z,16180
2023-03-11T09:15:43.153Z,16168
2023-03-11T09:17:11.829Z,16180
2023-03-11T09:18:40.905Z,16193
2023-03-11T09:20:09.409Z,16180
2023-03-11T09:21:37.715Z,16193
2023-03-11T09:23:06.050Z,16193
2023-03-11T09:24:34.408Z,16193
2023-03-11T09:26:02.890Z,16180
2023-03-11T09:27:31.393Z,16180
2023-03-11T09:28:59.911Z,16168
2023-03-11T09:30:28.496Z,16180
2023-03-11T09:31:56.851Z,16193
2023-03-11T09:33:25.274Z,16205
2023-03-11T09:34:53.553Z,16180
2023-03-11T09:36:22.433Z,16193
2023-03-11T09:37:51.193Z,16205
2023-03-11T09:39:19.913Z,16143
2023-03-11T09:40:48.107Z,16168
2023-03-11T09:42:16.632Z,16193
2023-03-11T09:43:45.326Z,16180
2023-03-11T09:45:14.335Z,16168
2023-03-11T09:46:42.851Z,16168
2023-03-11T09:48:11.872Z,16180
2023-03-11T09:49:39.994Z,16180
2023-03-11T09:51:08.827Z,16143
2023-03-11T09:52:36.757Z,16168
2023-03-11T09:54:05.329Z,16155
2023-03-11T09:55:33.574Z,16131
2023-03-11T09:57:01.917Z,16143
2023-03-11T09:58:30.725Z,16143
2023-03-11T09:59:58.945Z,16131
2023-03-11T10:01:27.854Z,16155
2023-03-11T10:02:57.102Z,16143
2023-03-11T10:04:25.126Z,16155
2023-03-11T10:05:52.798Z,16155
2023-03-11T10:07:21.147Z,16155
2023-03-11T10:08:49.354Z,16131
2023-03-11T10:10:17.886Z,16106
2023-03-11T10:13:46.654Z,16777
2023-03-11T10:15:14.868Z,16243
2023-03-11T10:16:43.380Z,16106
2023-03-11T10:18:11.468Z,16032
2023-03-11T10:19:39.919Z,16032
2023-03-11T10:21:08.043Z,15995
2023-03-11T10:22:36.872Z,16007
2023-03-11T10:24:05.616Z,15995
2023-03-11T10:25:33.918Z,16020
2023-03-11T10:27:02.280Z,16007
2023-03-11T10:28:30.961Z,15995
2023-03-11T10:29:59.428Z,16020
2023-03-11T10:31:28.623Z,15995
2023-03-11T10:32:56.497Z,15971
2023-03-11T10:34:24.488Z,15983
2023-03-11T10:35:53.062Z,16007
2023-03-11T10:37:21.320Z,15995
2023-03-11T10:38:49.708Z,16020
2023-03-11T10:40:17.928Z,15995
2023-03-11T10:41:46.544Z,15983
2023-03-11T10:43:14.836Z,15983
2023-03-11T10:44:44.035Z,15983
2023-03-11T10:46:11.919Z,15983
2023-03-11T10:47:40.005Z,15983
2023-03-11T10:49:08.334Z,15971
2023-03-11T10:50:37.457Z,15946
2023-03-11T10:52:05.135Z,15983
2023-03-11T10:53:33.085Z,15946
2023-03-11T10:55:01.437Z,15958
2023-03-11T10:56:29.628Z,15958
2023-03-11T10:57:57.999Z,15983
2023-03-11T10:59:26.217Z,15958
2023-03-11T11:00:54.826Z,15946
2023-03-11T11:02:23.277Z,15922
2023-03-11T11:03:52.556Z,15910
2023-03-11T11:05:20.810Z,15934
2023-03-11T11:06:49.367Z,15946
2023-03-11T11:08:17.962Z,15934
2023-03-11T11:09:46.372Z,15946
2023-03-11T11:11:15.013Z,15910
2023-03-11T11:12:42.879Z,15922
2023-03-11T11:14:11.483Z,15922
2023-03-11T11:15:39.684Z,15922
2023-03-11T11:17:08.034Z,15910
2023-03-11T11:18:36.574Z,15946
2023-03-11T11:20:05.694Z,15910
2023-03-11T11:21:34.292Z,15922
2023-03-11T11:23:02.573Z,15922
2023-03-11T11:24:32.744Z,15910
2023-03-11T11:26:00.285Z,15922
2023-03-11T11:27:28.880Z,15922
2023-03-11T11:28:58.031Z,15958
2023-03-11T11:30:26.538Z,15922
2023-03-11T11:31:54.662Z,15922
2023-03-11T11:33:23.980Z,15922
2023-03-11T11:34:52.546Z,15898
2023-03-11T11:36:21.379Z,15910
2023-03-11T11:38:00.289Z,16118
2023-03-11T11:39:29.728Z,15958
2023-03-11T11:40:58.139Z,15946
2023-03-11T11:42:26.838Z,15934
2023-03-11T11:43:55.502Z,15922
2023-03-11T11:45:23.957Z,15934
2023-03-11T11:46:52.864Z,15910
2023-03-11T11:48:21.655Z,15922
2023-03-11T11:49:49.286Z,15910
2023-03-11T11:51:17.746Z,15934
2023-03-11T11:52:46.058Z,15910
2023-03-11T11:54:14.231Z,15934
2023-03-11T11:55:42.664Z,15910
2023-03-11T11:57:11.656Z,15922
2023-03-11T11:58:40.303Z,15934
2023-03-11T12:00:08.780Z,15910
2023-03-11T12:01:37.376Z,15934
2023-03-11T12:03:06.036Z,15934
2023-03-11T12:04:34.656Z,15958
2023-03-11T12:06:03.826Z,15934
2023-03-11T12:07:32.118Z,15946
2023-03-11T12:09:00.275Z,15946
2023-03-11T12:10:29.601Z,15934
2023-03-11T12:11:58.627Z,15946
2023-03-11T12:13:27.792Z,15958
2023-03-11T12:14:56.370Z,15958
2023-03-11T12:16:24.492Z,15946
2023-03-11T12:17:53.103Z,15995
2023-03-11T12:19:21.660Z,15971
2023-03-11T12:20:50.423Z,15983
2023-03-11T12:22:19.274Z,15995
2023-03-11T12:23:48.344Z,16020
2023-03-11T12:25:16.884Z,15971
2023-03-11T12:26:44.953Z,15983
2023-03-11T12:28:13.637Z,15983
2023-03-11T12:29:43.907Z,16007
2023-03-11T12:31:11.305Z,15995
2023-03-11T12:32:39.153Z,15995
2023-03-11T12:34:07.098Z,15983
2023-03-11T12:35:36.293Z,16268
2023-03-11T12:37:04.447Z,16020
2023-03-11T12:38:32.929Z,16032
2023-03-11T12:40:01.292Z,15983
2023-03-11T12:41:29.575Z,15983
2023-03-11T12:42:58.110Z,15971
2023-03-11T12:44:27.073Z,16007
2023-03-11T12:45:55.455Z,15922
2023-03-11T12:47:24.313Z,15995
2023-03-11T12:48:52.993Z,16081
2023-03-11T12:50:21.732Z,16118
2023-03-11T12:51:50.214Z,16155
2023-03-11T12:53:19.872Z,16243
2023-03-11T12:54:48.890Z,16294
2023-03-11T12:56:17.691Z,16319
2023-03-11T12:57:46.172Z,16345
2023-03-11T12:59:14.592Z,16370
2023-03-11T13:00:43.381Z,16383
2023-03-11T13:02:11.625Z,16396
2023-03-11T13:03:40.026Z,16409
2023-03-11T13:05:08.696Z,16486
2023-03-11T13:06:36.743Z,16551
2023-03-11T13:08:05.715Z,16578
2023-03-11T13:09:33.693Z,16591
2023-03-11T13:11:02.290Z,16551
2023-03-11T13:12:30.696Z,16591
2023-03-11T13:13:59.008Z,16564
2023-03-11T13:15:27.476Z,16591
2023-03-11T13:16:56.384Z,16591
2023-03-11T13:18:25.206Z,16643
2023-03-11T13:19:54.056Z,16617
2023-03-11T13:21:22.445Z,16604
2023-03-11T13:22:50.836Z,16617
2023-03-11T13:23:59.582Z,16804
2023-03-11T13:25:27.750Z,16591
2023-03-11T13:26:56.452Z,16564
2023-03-11T13:28:24.715Z,16551
2023-03-11T13:36:16.809Z,16434
2023-03-11T13:37:45.084Z,16383
2023-03-11T13:39:13.593Z,16332
2023-03-11T13:40:42.455Z,16256
2023-03-11T13:46:07.181Z,16319
2023-03-11T13:47:35.201Z,16306
2023-03-11T13:52:30.782Z,16357
2023-03-11T13:53:58.325Z,16383
2023-03-11T13:55:27.284Z,16306
2023-03-11T13:56:55.480Z,16268
2023-03-11T13:58:24.681Z,16256
2023-03-11T13:59:52.807Z,16281
2023-03-11T14:01:21.875Z,16281
2023-03-11T14:02:50.484Z,16281
2023-03-11T14:04:19.150Z,16268
2023-03-11T14:05:47.177Z,16294
2023-03-11T14:07:15.612Z,16268
2023-03-11T14:08:44.609Z,16256
2023-03-11T14:10:13.263Z,16243
2023-03-11T14:11:42.014Z,16243
2023-03-11T14:13:10.541Z,16205
2023-03-11T14:14:39.353Z,16231
2023-03-11T14:16:08.502Z,16243
2023-03-11T14:17:36.299Z,16231
2023-03-11T14:19:04.629Z,16180
2023-03-11T14:20:33.310Z,16180
2023-03-11T14:22:01.667Z,16155
2023-03-11T14:23:29.976Z,16180
2023-03-11T14:24:58.635Z,16180
2023-03-11T14:26:26.415Z,16180
2023-03-11T14:27:54.896Z,16155
2023-03-11T14:29:22.837Z,16106
2023-03-11T14:30:51.638Z,16106
2023-03-11T14:32:20.503Z,16106
2023-03-11T14:33:48.608Z,16081
2023-03-11T14:35:17.497Z,16069
2023-03-11T14:36:46.645Z,16007
2023-03-11T14:38:15.237Z,16032
2023-03-11T14:39:43.830Z,16081
2023-03-11T14:41:12.177Z,16069
2023-03-11T14:42:41.169Z,16056
2023-03-11T14:44:09.816Z,16007
2023-03-11T14:45:38.349Z,15983
2023-03-11T14:47:06.575Z,15971
2023-03-11T14:48:34.984Z,15995
2023-03-11T14:50:03.802Z,15934
2023-03-11T14:51:31.625Z,15934
2023-03-11T14:53:00.096Z,15910
2023-03-11T14:54:28.476Z,15886
2023-03-11T14:55:56.704Z,15898
2023-03-11T14:57:25.674Z,15874
2023-03-11T14:59:12.701Z,15886
2023-03-11T15:00:23.738Z,16020
2023-03-11T15:01:51.824Z,15971
2023-03-11T15:03:41.483Z,16180
2023-03-11T15:04:49.493Z,15995
2023-03-11T15:06:08.542Z,15995
2023-03-11T15:07:36.765Z,15826
2023-03-11T15:09:05.040Z,15742
2023-03-11T15:10:33.272Z,15695
2023-03-11T15:12:01.520Z,15648
2023-03-11T15:13:21.056Z,15590
2023-03-11T15:14:49.299Z,15602
2023-03-11T15:16:17.663Z,15555
2023-03-11T15:17:45.602Z,15567
2023-03-11T15:19:14.482Z,15555
2023-03-11T15:20:43.474Z,15509
2023-03-11T15:22:11.980Z,15486
2023-03-11T15:23:40.797Z,15498
2023-03-11T15:25:09.303Z,15486
2023-03-11T15:26:38.130Z,15486
2023-03-11T15:28:06.094Z,15521
2023-03-11T15:29:34.490Z,15452
2023-03-11T15:31:03.743Z,15452
2023-03-11T15:32:33.138Z,15441
2023-03-11T15:34:01.555Z,15395
2023-03-11T15:35:30.118Z,15384
2023-03-11T15:36:59.067Z,15384
2023-03-11T15:38:27.700Z,15361
2023-03-11T15:39:56.029Z,15339
2023-03-11T15:41:24.678Z,15294
2023-03-11T15:42:40.397Z,15731
2023-03-11T15:44:09.009Z,14987
2023-03-11T15:45:37.947Z,14580
2023-03-11T15:47:06.207Z,14530
2023-03-11T15:48:34.938Z,14520
2023-03-11T15:50:03.136Z,14490
2023-03-11T15:51:32.699Z,14470
2023-03-11T15:53:00.642Z,14460
2023-03-11T15:54:28.795Z,14460
2023-03-11T15:56:08.370Z,14480
2023-03-11T15:57:25.193Z,14490
2023-03-11T15:58:53.425Z,14490
2023-03-11T16:00:21.943Z,14510
2023-03-11T16:01:50.901Z,14500
2023-03-11T16:03:19.774Z,14480
2023-03-11T16:04:49.009Z,14490
2023-03-11T16:06:16.723Z,14500
2023-03-11T16:07:45.529Z,14470
2023-03-11T16:09:13.817Z,14470
2023-03-11T16:10:42.387Z,14410
2023-03-11T16:12:10.396Z,14360
2023-03-11T16:13:38.965Z,14205
2023-03-11T16:15:07.393Z,14147
2023-03-11T16:16:35.911Z,14071
2023-03-11T16:18:04.534Z,13996
2023-03-11T16:19:32.777Z,14014
2023-03-11T16:21:01.017Z,13903
2023-03-11T16:22:30.096Z,13838
2023-03-11T16:23:59.004Z,13829
2023-03-11T16:25:27.686Z,13703
2023-03-11T16:26:57.057Z,13596
2023-03-11T16:28:05.414Z,13622
2023-03-11T16:29:33.407Z,13569
2023-03-11T16:31:02.276Z,13543
2023-03-11T16:32:30.704Z,13526
2023-03-11T16:33:58.686Z,13526
2023-03-11T16:35:27.200Z,13543
2023-03-11T16:36:55.142Z,13526
2023-03-11T16:38:23.913Z,13526
2023-03-11T16:39:52.269Z,13526
2023-03-11T16:41:21.452Z,13534
2023-03-11T16:42:49.603Z,13508
2023-03-11T16:44:17.763Z,13517
2023-03-11T16:45:27.184Z,13578
2023-03-11T16:46:56.030Z,13561
2023-03-11T16:48:23.770Z,13552
2023-03-11T16:49:52.515Z,13561
2023-03-11T16:51:21.539Z,13552
2023-03-11T16:52:50.570Z,13596
2023-03-11T16:54:19.203Z,13569
2023-03-11T16:55:47.412Z,13561
2023-03-11T16:57:16.253Z,13569
2023-03-11T16:58:45.000Z,13569
2023-03-11T17:00:13.583Z,13569
2023-03-11T17:01:42.401Z,13578
2023-03-11T17:03:11.088Z,13578
2023-03-11T17:04:39.893Z,13649
2023-03-11T17:06:08.408Z,13613
2023-03-11T17:07:40.501Z,13605
2023-03-11T17:09:05.112Z,13622
2023-03-11T17:10:34.131Z,13640
2023-03-11T17:12:02.057Z,13649
2023-03-11T17:13:30.097Z,13667
2023-03-11T17:16:20.312Z,14450
2023-03-11T17:17:48.521Z,13884
2023-03-11T17:19:17.075Z,13793
2023-03-11T17:20:44.977Z,13739
2023-03-11T17:22:13.506Z,13766
2023-03-11T17:23:41.863Z,13793
2023-03-11T17:25:10.850Z,13820
2023-03-11T17:26:39.588Z,13802
2023-03-11T17:28:08.317Z,13820
2023-03-11T17:29:36.500Z,13811
2023-03-11T17:31:05.709Z,13838
2023-03-11T17:32:34.723Z,13857
2023-03-11T17:34:03.135Z,13866
2023-03-11T17:35:31.836Z,13958
2023-03-11T17:37:00.227Z,13921
2023-03-11T17:38:28.642Z,13958
2023-03-11T17:39:57.223Z,13968
2023-03-11T17:41:25.357Z,13968
2023-03-11T17:42:54.494Z,14024
2023-03-11T17:44:23.455Z,14061
2023-03-11T17:45:52.221Z,14090
2023-03-11T17:47:21.164Z,14099
2023-03-11T17:48:48.609Z,14090
2023-03-11T17:50:17.063Z,14185
2023-03-11T17:51:45.828Z,14128
2023-03-11T17:53:14.435Z,14137
2023-03-11T17:54:42.937Z,14185
2023-03-11T17:56:10.906Z,14224
2023-03-11T17:57:46.639Z,14214
2023-03-11T17:59:08.411Z,14205
2023-03-11T18:00:37.610Z,14253
2023-03-11T18:02:06.980Z,14282
2023-03-11T18:03:35.341Z,14272
2023-03-11T18:05:03.896Z,14282
2023-03-11T18:06:32.243Z,14292
2023-03-11T18:08:00.565Z,14292
2023-03-11T18:09:29.356Z,14351
2023-03-11T18:10:58.265Z,14370
2023-03-11T18:12:26.639Z,14370
2023-03-11T18:13:55.416Z,14420
2023-03-11T18:15:24.248Z,14450
2023-03-11T18:16:53.246Z,14430
2023-03-11T18:18:21.524Z,14440
2023-03-11T18:19:50.028Z,14440
2023-03-11T18:21:18.148Z,14480
2023-03-11T18:22:47.820Z,14500
2023-03-11T18:24:14.730Z,14755
2023-03-11T18:25:43.025Z,14500
2023-03-11T18:27:11.712Z,14520
2023-03-11T18:28:39.936Z,14540
2023-03-11T18:30:08.516Z,14530
2023-03-11T18:31:37.234Z,14540
2023-03-11T18:33:05.746Z,14570
2023-03-11T18:34:34.581Z,14580
2023-03-11T18:36:03.657Z,14621
2023-03-11T18:37:32.294Z,14580
2023-03-11T18:39:00.533Z,14591
2023-03-11T18:40:29.529Z,14621
2023-03-11T18:41:58.227Z,14611
2023-03-11T18:43:26.913Z,14662
2023-03-11T18:44:55.842Z,14631
2023-03-11T18:46:24.455Z,14642
2023-03-11T18:47:52.905Z,14621
2023-03-11T18:49:21.504Z,14631
2023-03-11T18:50:50.747Z,14662
2023-03-11T18:52:19.368Z,14642
2023-03-11T18:53:47.978Z,14672
2023-03-11T18:55:16.897Z,14662
2023-03-11T18:56:45.144Z,14683
2023-03-11T18:58:14.202Z,14672
2023-03-11T18:59:43.112Z,14662
2023-03-11T19:01:12.266Z,14662
2023-03-11T19:02:40.001Z,14672
2023-03-11T19:04:08.921Z,14693
2023-03-11T19:05:37.926Z,14693
2023-03-11T19:07:06.706Z,14672
2023-03-11T19:08:35.786Z,14693
2023-03-11T19:10:04.952Z,14714
2023-03-11T19:11:32.889Z,14662
2023-03-11T19:13:01.675Z,14662
2023-03-11T19:14:30.009Z,14652
2023-03-11T19:15:58.637Z,14672
2023-03-11T19:17:27.171Z,14652